createdAt,value
2023-02-23T00:00:44.470Z,22.03
2023-02-23T00:03:12.583Z,19.97
2023-02-23T00:05:40.634Z,21.43
2023-02-23T00:08:09.367Z,22.17
2023-02-23T00:10:37.498Z,23.00
2023-02-23T00:13:06.068Z,23.27
2023-02-23T00:15:35.459Z,21.70
2023-02-23T00:18:04.633Z,23.30
2023-02-23T00:20:32.733Z,24.27
2023-02-23T00:23:00.752Z,22.30
2023-02-23T00:25:31.133Z,24.57
2023-02-23T00:27:59.337Z,24.70
2023-02-23T00:30:27.408Z,21.90
2023-02-23T00:32:56.900Z,22.97
2023-02-23T00:35:25.079Z,22.83
2023-02-23T00:37:53.162Z,21.33
2023-02-23T00:40:23.088Z,20.53
2023-02-23T00:42:52.404Z,25.00
2023-02-23T00:45:20.597Z,22.53
2023-02-23T00:47:55.832Z,23.07
2023-02-23T00:50:24.392Z,25.33
2023-02-23T00:52:52.419Z,21.53
2023-02-23T00:55:20.660Z,23.50
2023-02-23T00:57:48.679Z,21.70
2023-02-23T01:00:20.245Z,25.10
2023-02-23T01:02:48.296Z,24.27
2023-02-23T01:05:17.965Z,20.77
2023-02-23T01:07:47.469Z,21.30
2023-02-23T01:10:21.216Z,23.00
2023-02-23T01:12:50.084Z,22.10
2023-02-23T01:15:18.562Z,23.27
2023-02-23T01:17:46.937Z,24.10
2023-02-23T01:20:18.384Z,22.80
2023-02-23T01:22:46.746Z,20.30
2023-02-23T01:25:14.811Z,22.63
2023-02-23T01:27:43.700Z,22.27
2023-02-23T01:30:13.187Z,23.90
2023-02-23T01:32:41.308Z,23.10
2023-02-23T01:35:10.449Z,27.67
2023-02-23T01:37:41.057Z,24.67
2023-02-23T01:40:13.556Z,23.63
2023-02-23T01:42:43.887Z,22.20
2023-02-23T01:45:32.447Z,22.43
2023-02-23T01:48:03.156Z,22.13
2023-02-23T01:50:32.354Z,20.90
2023-02-23T01:53:01.756Z,22.77
2023-02-23T01:55:30.013Z,22.60
2023-02-23T01:58:02.622Z,21.13
2023-02-23T02:00:32.331Z,23.70
2023-02-23T02:03:01.208Z,25.53
2023-02-23T02:05:29.691Z,23.90
2023-02-23T02:07:59.563Z,22.67
2023-02-23T02:10:45.060Z,23.70
2023-02-23T02:13:15.276Z,24.03
2023-02-23T02:16:05.357Z,24.50
2023-02-23T02:18:38.227Z,22.70
2023-02-23T02:21:35.222Z,23.23
2023-02-23T02:24:30.466Z,23.77
2023-02-23T02:27:06.821Z,22.90
2023-02-23T02:30:10.490Z,24.80
2023-02-23T02:33:16.960Z,26.77
2023-02-23T02:36:15.382Z,24.20
2023-02-23T02:38:53.617Z,21.90
2023-02-23T02:41:24.402Z,24.17
2023-02-23T02:43:58.451Z,26.07
2023-02-23T02:46:27.817Z,24.57
2023-02-23T02:48:59.329Z,27.40
2023-02-23T02:51:35.215Z,21.90
2023-02-23T02:54:11.253Z,23.73
2023-02-23T02:56:40.869Z,21.77
2023-02-23T02:59:27.304Z,20.83
2023-02-23T03:02:12.925Z,23.70
2023-02-23T03:04:58.773Z,23.80
2023-02-23T03:07:46.885Z,23.73
2023-02-23T03:10:36.771Z,25.13
2023-02-23T03:13:29.852Z,25.10
2023-02-23T03:16:18.936Z,25.43
2023-02-23T03:19:19.128Z,28.30
2023-02-23T03:22:08.616Z,27.07
2023-02-23T03:24:57.327Z,25.13
2023-02-23T03:27:45.915Z,25.50
2023-02-23T03:30:34.739Z,23.63
2023-02-23T03:33:22.870Z,27.17
2023-02-23T03:36:10.484Z,20.70
2023-02-23T03:38:58.719Z,28.70
2023-02-23T03:41:44.336Z,25.33
2023-02-23T03:44:32.850Z,26.67
2023-02-23T03:47:18.138Z,25.70
2023-02-23T03:50:03.653Z,29.37
2023-02-23T03:52:50.546Z,27.33
2023-02-23T03:55:37.370Z,25.87
2023-02-23T03:58:24.015Z,29.40
2023-02-23T04:01:10.788Z,28.53
2023-02-23T04:03:57.789Z,30.00
2023-02-23T04:06:50.204Z,29.83
2023-02-23T04:09:35.520Z,31.90
2023-02-23T04:12:23.509Z,28.97
2023-02-23T04:14:54.452Z,29.93
2023-02-23T04:17:29.966Z,28.40
2023-02-23T04:19:58.031Z,31.73
2023-02-23T04:22:26.016Z,28.77
2023-02-23T04:24:54.217Z,30.10
2023-02-23T04:27:22.346Z,31.67
2023-02-23T04:29:54.670Z,28.60
2023-02-23T04:32:24.185Z,29.30
2023-02-23T04:34:52.287Z,30.33
2023-02-23T04:37:20.297Z,29.77
2023-02-23T04:39:50.228Z,31.43
2023-02-23T04:42:18.450Z,31.13
2023-02-23T04:44:46.555Z,30.30
2023-02-23T04:47:18.719Z,28.60
2023-02-23T04:49:48.262Z,29.77
2023-02-23T04:52:16.300Z,30.67
2023-02-23T04:54:45.071Z,32.47
2023-02-23T04:57:13.105Z,34.40
2023-02-23T04:59:41.566Z,32.87
2023-02-23T05:02:10.284Z,32.20
2023-02-23T05:04:38.392Z,29.70
2023-02-23T05:07:07.809Z,31.27
2023-02-23T05:09:35.995Z,32.03
2023-02-23T05:12:04.090Z,32.70
2023-02-23T05:14:32.212Z,32.60
2023-02-23T05:17:00.241Z,32.60
2023-02-23T05:19:28.540Z,31.17
2023-02-23T05:21:56.565Z,32.00
2023-02-23T05:24:26.006Z,37.17
2023-02-23T05:26:54.072Z,36.80
2023-02-23T05:29:22.104Z,31.20
2023-02-23T05:31:50.209Z,33.90
2023-02-23T05:34:18.352Z,33.40
2023-02-23T05:36:46.394Z,33.13
2023-02-23T05:39:14.398Z,34.60
2023-02-23T05:41:43.792Z,27.60
2023-02-23T05:44:11.859Z,33.80
2023-02-23T05:46:39.898Z,35.27
2023-02-23T05:49:07.910Z,34.50
2023-02-23T05:51:35.952Z,33.43
2023-02-23T05:54:03.972Z,34.17
2023-02-23T05:56:32.128Z,34.83
2023-02-23T05:59:02.510Z,35.60
2023-02-23T06:01:30.613Z,31.13
2023-02-23T06:03:58.705Z,35.23
2023-02-23T06:06:26.971Z,30.50
2023-02-23T06:08:55.014Z,30.70
2023-02-23T06:11:23.094Z,33.47
2023-02-23T06:13:51.106Z,34.90
2023-02-23T06:16:21.127Z,36.47
2023-02-23T06:18:49.221Z,33.07
2023-02-23T06:21:17.549Z,34.67
2023-02-23T06:23:46.013Z,37.60
2023-02-23T06:26:14.094Z,37.57
2023-02-23T06:28:42.146Z,33.47
2023-02-23T06:31:10.308Z,35.80
2023-02-23T06:33:39.763Z,34.23
2023-02-23T06:36:08.476Z,33.83
2023-02-23T06:38:36.482Z,36.30
2023-02-23T06:41:08.685Z,35.87
2023-02-23T06:43:36.721Z,35.57
2023-02-23T06:46:04.922Z,35.07
2023-02-23T06:48:32.955Z,34.13
2023-02-23T06:51:02.397Z,33.30
2023-02-23T06:53:30.833Z,35.63
2023-02-23T06:55:58.927Z,36.27
2023-02-23T06:58:26.957Z,35.90
2023-02-23T07:00:56.884Z,38.33
2023-02-23T07:03:25.284Z,35.83
2023-02-23T07:05:54.985Z,35.10
2023-02-23T07:08:24.409Z,38.03
2023-02-23T07:10:52.434Z,36.73
2023-02-23T07:13:22.010Z,35.70
2023-02-23T07:15:50.914Z,39.80
2023-02-23T07:18:19.106Z,36.03
2023-02-23T07:20:47.156Z,35.93
2023-02-23T07:23:15.177Z,40.70
2023-02-23T07:25:44.633Z,44.47
2023-02-23T07:28:14.295Z,38.57
2023-02-23T07:30:42.432Z,39.10
2023-02-23T07:33:10.464Z,37.80
2023-02-23T07:35:38.502Z,35.20
2023-02-23T07:38:07.462Z,41.10
2023-02-23T07:40:35.478Z,36.53
2023-02-23T07:43:04.913Z,38.17
2023-02-23T07:45:33.326Z,42.00
2023-02-23T07:48:01.368Z,41.40
2023-02-23T07:50:29.373Z,42.97
2023-02-23T07:52:57.456Z,44.30
2023-02-23T07:55:25.515Z,38.97
2023-02-23T07:57:53.747Z,40.40
2023-02-23T08:00:25.125Z,36.97
2023-02-23T08:02:54.097Z,39.07
2023-02-23T08:05:26.597Z,39.20
2023-02-23T08:07:54.771Z,38.63
2023-02-23T08:10:22.932Z,39.47
2023-02-23T08:12:50.992Z,37.63
2023-02-23T08:15:19.223Z,40.80
2023-02-23T08:17:48.617Z,39.13
2023-02-23T08:20:16.650Z,38.90
2023-02-23T08:22:49.753Z,38.23
2023-02-23T08:25:18.653Z,38.63
2023-02-23T08:27:46.711Z,36.40
2023-02-23T08:30:15.527Z,39.07
2023-02-23T08:32:43.577Z,38.60
2023-02-23T08:35:13.340Z,39.80
2023-02-23T08:37:41.976Z,36.40
2023-02-23T08:40:12.629Z,38.80
2023-02-23T08:42:40.653Z,37.50
2023-02-23T08:45:09.721Z,40.37
2023-02-23T08:47:37.820Z,38.73
2023-02-23T08:50:06.425Z,39.00
2023-02-23T08:52:35.923Z,39.07
2023-02-23T08:55:04.151Z,41.07
2023-02-23T08:57:34.020Z,38.30
2023-02-23T09:00:02.184Z,39.93
2023-02-23T09:02:30.450Z,38.73
2023-02-23T09:04:59.168Z,37.80
2023-02-23T09:07:27.220Z,42.43
2023-02-23T09:10:02.384Z,34.83
2023-02-23T09:12:30.414Z,38.13
2023-02-23T09:14:58.426Z,36.63
2023-02-23T09:17:26.524Z,38.60
2023-02-23T09:19:54.826Z,37.93
2023-02-23T09:22:22.882Z,39.50
2023-02-23T09:24:50.886Z,37.50
2023-02-23T09:27:20.286Z,37.60
2023-02-23T09:29:48.443Z,38.73
2023-02-23T09:32:16.556Z,37.43
2023-02-23T09:34:45.104Z,40.30
2023-02-23T09:37:13.201Z,40.00
2023-02-23T09:39:41.224Z,38.73
2023-02-23T09:42:17.722Z,38.07
2023-02-23T09:45:04.835Z,34.57
2023-02-23T09:47:40.608Z,42.17
2023-02-23T09:50:15.907Z,37.20
2023-02-23T09:52:45.966Z,40.90
2023-02-23T09:55:14.223Z,39.70
2023-02-23T09:57:43.751Z,38.90
2023-02-23T10:00:17.278Z,39.07
2023-02-23T10:03:07.087Z,38.60
2023-02-23T10:05:38.151Z,39.10
2023-02-23T10:08:09.327Z,38.73
2023-02-23T10:10:41.194Z,39.00
2023-02-23T10:13:12.335Z,39.60
2023-02-23T10:15:45.464Z,39.60
2023-02-23T10:18:20.128Z,37.20
2023-02-23T10:20:52.011Z,37.43
2023-02-23T10:23:22.840Z,37.53
2023-02-23T10:25:51.224Z,42.13
2023-02-23T10:28:21.489Z,39.70
2023-02-23T10:30:51.143Z,38.00
2023-02-23T10:33:22.560Z,39.33
2023-02-23T10:35:52.394Z,36.90
2023-02-23T10:38:21.987Z,37.20
2023-02-23T10:40:52.148Z,38.53
2023-02-23T10:43:20.170Z,36.30
2023-02-23T10:45:52.360Z,35.87
2023-02-23T10:48:22.646Z,37.03
2023-02-23T10:50:51.133Z,37.50
2023-02-23T10:53:22.772Z,36.70
2023-02-23T10:56:03.406Z,37.90
2023-02-23T10:58:31.470Z,38.03
2023-02-23T11:01:01.564Z,38.33
2023-02-23T11:03:33.345Z,37.70
2023-02-23T11:06:01.394Z,35.43
2023-02-23T11:08:31.800Z,33.40
2023-02-23T11:11:01.624Z,37.37
2023-02-23T11:13:30.311Z,37.93
2023-02-23T11:16:04.511Z,37.50
2023-02-23T11:18:32.568Z,34.77
2023-02-23T11:21:00.658Z,34.60
2023-02-23T11:23:30.117Z,33.30
2023-02-23T11:26:01.226Z,35.97
2023-02-23T11:28:31.223Z,31.30
2023-02-23T11:31:01.854Z,34.70
2023-02-23T11:33:36.055Z,31.67
2023-02-23T11:36:18.643Z,38.43
2023-02-23T11:38:47.303Z,34.50
2023-02-23T11:41:22.972Z,33.73
2023-02-23T11:43:52.064Z,32.80
2023-02-23T11:46:21.899Z,33.80
2023-02-23T11:48:52.963Z,35.30
2023-02-23T11:51:28.647Z,34.33
2023-02-23T11:53:56.732Z,34.10
2023-02-23T11:56:25.745Z,30.20
2023-02-23T11:58:55.356Z,31.67
2023-02-23T12:01:24.970Z,33.40
2023-02-23T12:03:55.998Z,31.93
2023-02-23T12:06:30.586Z,33.90
2023-02-23T12:09:02.894Z,29.90
2023-02-23T12:11:32.850Z,31.90
2023-02-23T12:14:03.705Z,35.40
2023-02-23T12:16:34.523Z,32.90
2023-02-23T12:19:05.946Z,35.60
2023-02-23T12:21:35.810Z,32.93
2023-02-23T12:24:17.041Z,31.30
2023-02-23T12:26:47.501Z,29.30
2023-02-23T12:29:19.749Z,30.93
2023-02-23T12:31:48.769Z,30.80
2023-02-23T12:34:19.555Z,31.53
2023-02-23T12:36:48.725Z,35.50
2023-02-23T12:39:22.613Z,30.33
2023-02-23T12:41:56.738Z,33.13
2023-02-23T12:44:33.099Z,30.70
2023-02-23T12:47:03.587Z,31.43
2023-02-23T12:49:36.320Z,27.43
2023-02-23T12:52:11.568Z,28.43
2023-02-23T12:54:39.578Z,28.00
2023-02-23T12:57:13.495Z,28.33
2023-02-23T12:59:51.892Z,30.37
2023-02-23T13:02:22.998Z,28.30
2023-02-23T13:05:15.666Z,29.60
2023-02-23T13:07:48.002Z,28.77
2023-02-23T13:10:22.075Z,30.27
2023-02-23T13:12:59.868Z,29.13
2023-02-23T13:15:47.335Z,25.63
2023-02-23T13:18:17.966Z,26.80
2023-02-23T13:20:49.022Z,29.67
2023-02-23T13:23:22.424Z,27.00
2023-02-23T13:25:54.082Z,26.07
2023-02-23T13:28:23.077Z,29.33
2023-02-23T13:30:51.228Z,27.50
2023-02-23T13:33:35.030Z,29.77
2023-02-23T13:36:12.892Z,28.80
2023-02-23T13:38:43.429Z,27.60
2023-02-23T13:41:14.436Z,25.93
2023-02-23T13:43:45.640Z,26.30
2023-02-23T13:46:19.380Z,27.33
2023-02-23T13:48:57.246Z,27.13
2023-02-23T13:51:34.113Z,25.40
2023-02-23T13:54:06.114Z,26.20
2023-02-23T13:56:38.034Z,24.03
2023-02-23T13:59:08.370Z,26.20
2023-02-23T14:01:38.592Z,25.30
2023-02-23T14:04:12.541Z,27.60
2023-02-23T14:06:50.940Z,24.67
2023-02-23T14:09:22.087Z,24.87
2023-02-23T14:11:50.873Z,28.80
2023-02-23T14:14:42.182Z,25.20
2023-02-23T14:17:28.680Z,25.37
2023-02-23T14:20:07.753Z,24.07
2023-02-23T14:22:37.198Z,25.00
2023-02-23T14:25:42.066Z,22.50
2023-02-23T14:28:24.386Z,24.40
2023-02-23T14:31:00.095Z,26.27
2023-02-23T14:33:39.280Z,21.97
2023-02-23T14:36:43.033Z,23.30
2023-02-23T14:39:17.880Z,21.17
2023-02-23T14:41:50.062Z,22.87
2023-02-23T14:44:34.264Z,21.13
2023-02-23T14:47:04.088Z,22.00
2023-02-23T14:49:35.096Z,24.27
2023-02-23T14:52:07.311Z,23.77
2023-02-23T14:54:37.644Z,22.40
2023-02-23T14:57:06.814Z,22.67
2023-02-23T14:59:39.332Z,21.70
2023-02-23T15:02:11.234Z,19.20
2023-02-23T15:04:39.788Z,22.37
2023-02-23T15:07:07.889Z,22.47
2023-02-23T15:09:40.086Z,21.13
2023-02-23T15:12:15.253Z,23.03
2023-02-23T15:14:43.725Z,23.27
2023-02-23T15:17:16.962Z,19.10
2023-02-23T15:19:45.193Z,22.80
2023-02-23T15:22:25.336Z,20.43
2023-02-23T15:24:57.257Z,19.93
2023-02-23T15:27:27.267Z,18.63
2023-02-23T15:29:55.517Z,20.20
2023-02-23T15:32:25.010Z,18.93
2023-02-23T15:34:53.226Z,19.67
2023-02-23T15:37:25.582Z,19.30
2023-02-23T15:39:56.956Z,24.47
2023-02-23T15:42:26.560Z,19.37
2023-02-23T15:44:59.515Z,20.37
2023-02-23T15:47:29.009Z,19.80
2023-02-23T15:50:05.612Z,19.53
2023-02-23T15:52:35.320Z,22.47
2023-02-23T15:55:07.497Z,21.30
2023-02-23T15:57:36.361Z,20.33
2023-02-23T16:00:10.838Z,22.77
2023-02-23T16:02:38.863Z,19.47
2023-02-23T16:05:18.386Z,20.27
2023-02-23T16:07:46.519Z,20.30
2023-02-23T16:10:25.982Z,20.50
2023-02-23T16:12:54.782Z,19.83
2023-02-23T16:15:25.801Z,20.90
2023-02-23T16:17:57.763Z,21.40
2023-02-23T16:20:30.246Z,21.43
2023-02-23T16:22:58.341Z,18.57
2023-02-23T16:25:28.102Z,19.33
2023-02-23T16:27:59.562Z,18.47
2023-02-23T16:30:37.122Z,18.73
2023-02-23T16:33:08.256Z,22.97
2023-02-23T16:35:38.208Z,19.17
2023-02-23T16:38:12.673Z,20.33
2023-02-23T16:40:42.208Z,20.13
2023-02-23T16:43:10.768Z,18.70
2023-02-23T16:45:40.521Z,17.90
2023-02-23T16:48:11.735Z,18.43
2023-02-23T16:50:40.671Z,18.73
2023-02-23T16:53:09.901Z,17.50
2023-02-23T16:55:40.741Z,17.53
2023-02-23T16:58:11.985Z,18.40
2023-02-23T17:00:40.070Z,19.50
2023-02-23T17:03:17.561Z,21.10
2023-02-23T17:05:49.585Z,18.93
2023-02-23T17:08:17.868Z,16.13
2023-02-23T17:10:47.402Z,17.07
2023-02-23T17:13:19.191Z,18.30
2023-02-23T17:15:51.820Z,20.70
2023-02-23T17:18:20.427Z,20.90
2023-02-23T17:20:48.500Z,18.80
2023-02-23T17:23:16.532Z,21.93
2023-02-23T17:25:45.104Z,16.67
2023-02-23T17:28:13.196Z,18.93
2023-02-23T17:30:43.875Z,21.93
2023-02-23T17:33:12.133Z,20.60
2023-02-23T17:35:40.252Z,22.40
2023-02-23T17:38:08.443Z,21.47
2023-02-23T17:40:38.025Z,17.73
2023-02-23T17:43:08.632Z,18.23
2023-02-23T17:45:36.739Z,18.10
2023-02-23T17:48:06.580Z,24.13
2023-02-23T17:50:34.635Z,20.67
2023-02-23T17:53:02.659Z,16.17
2023-02-23T17:55:30.691Z,23.07
2023-02-23T17:57:58.701Z,17.10
2023-02-23T18:00:28.622Z,18.23
2023-02-23T18:02:56.823Z,19.53
2023-02-23T18:05:26.244Z,16.93
2023-02-23T18:07:54.260Z,19.47
2023-02-23T18:10:25.394Z,18.93
2023-02-23T18:12:53.642Z,16.30
2023-02-23T18:15:21.697Z,20.10
2023-02-23T18:17:49.882Z,19.63
2023-02-23T18:20:18.254Z,20.60
2023-02-23T18:22:47.719Z,19.77
2023-02-23T18:25:22.544Z,17.80
2023-02-23T18:27:53.972Z,18.90
2023-02-23T18:30:22.673Z,21.07
2023-02-23T18:32:52.511Z,19.67
2023-02-23T18:35:20.783Z,16.93
2023-02-23T18:37:50.479Z,16.13
2023-02-23T18:40:23.909Z,16.47
2023-02-23T18:42:52.091Z,18.00
2023-02-23T18:45:20.193Z,14.20
2023-02-23T18:47:49.372Z,17.57
2023-02-23T18:50:19.448Z,16.10
2023-02-23T18:52:50.873Z,16.53
2023-02-23T18:55:19.682Z,18.80
2023-02-23T18:57:47.935Z,15.57
2023-02-23T19:00:16.428Z,17.17
2023-02-23T19:02:49.393Z,17.10
2023-02-23T19:05:20.136Z,18.00
2023-02-23T19:07:50.381Z,16.60
2023-02-23T19:10:19.479Z,15.70
2023-02-23T19:12:47.544Z,17.30
2023-02-23T19:15:15.571Z,17.93
2023-02-23T19:17:44.947Z,17.90
2023-02-23T19:20:14.602Z,17.57
2023-02-23T19:22:42.733Z,14.87
2023-02-23T19:25:14.442Z,18.43
2023-02-23T19:27:42.826Z,16.17
2023-02-23T19:30:12.110Z,17.10
2023-02-23T19:32:40.757Z,15.47
2023-02-23T19:35:11.217Z,16.07
2023-02-23T19:37:40.659Z,18.13
2023-02-23T19:40:11.936Z,16.73
2023-02-23T19:42:43.663Z,15.80
2023-02-23T19:45:11.689Z,18.10
2023-02-23T19:47:40.465Z,14.57
2023-02-23T19:50:09.795Z,16.20
2023-02-23T19:52:44.625Z,16.63
2023-02-23T19:55:14.189Z,15.03
2023-02-23T19:57:42.238Z,15.83
2023-02-23T20:00:12.178Z,19.13
2023-02-23T20:02:42.719Z,15.43
2023-02-23T20:05:11.466Z,16.67
2023-02-23T20:07:39.666Z,12.83
2023-02-23T20:10:09.481Z,16.10
2023-02-23T20:12:39.028Z,13.07
2023-02-23T20:15:08.423Z,16.70
2023-02-23T20:17:36.504Z,16.40
2023-02-23T20:20:05.998Z,16.20
2023-02-23T20:22:36.485Z,14.70
2023-02-23T20:25:06.000Z,16.03
2023-02-23T20:27:34.096Z,15.13
2023-02-23T20:30:03.548Z,17.43
2023-02-23T20:32:31.685Z,14.77
2023-02-23T20:35:01.776Z,16.47
2023-02-23T20:37:29.781Z,14.80
2023-02-23T20:39:57.770Z,14.27
2023-02-23T20:42:28.285Z,16.33
2023-02-23T20:44:56.756Z,15.93
2023-02-23T20:47:26.164Z,16.60
2023-02-23T20:49:54.186Z,17.10
2023-02-23T20:52:22.188Z,15.80
2023-02-23T20:54:50.196Z,18.50
2023-02-23T20:57:19.450Z,15.33
2023-02-23T20:59:47.459Z,16.87
2023-02-23T21:02:15.488Z,14.80
2023-02-23T21:04:45.231Z,13.30
2023-02-23T21:07:14.127Z,15.00
2023-02-23T21:09:42.573Z,15.23
2023-02-23T21:12:11.045Z,15.67
2023-02-23T21:14:39.079Z,16.50
2023-02-23T21:17:07.454Z,14.53
2023-02-23T21:19:36.465Z,14.70
2023-02-23T21:22:05.920Z,16.90
2023-02-23T21:24:34.814Z,15.70
2023-02-23T21:27:05.374Z,12.53
2023-02-23T21:29:33.512Z,14.73
2023-02-23T21:32:01.632Z,14.67
2023-02-23T21:34:29.805Z,14.43
2023-02-23T21:36:59.223Z,13.53
2023-02-23T21:39:29.071Z,12.27
2023-02-23T21:41:57.120Z,14.70
2023-02-23T21:44:25.152Z,13.53
2023-02-23T21:46:55.554Z,11.87
2023-02-23T21:49:23.578Z,15.00
2023-02-23T21:51:53.988Z,13.03
2023-02-23T21:54:23.628Z,11.40
2023-02-23T21:56:53.060Z,13.93
2023-02-23T21:59:21.105Z,11.37
2023-02-23T22:01:49.144Z,14.97
2023-02-23T22:04:17.189Z,13.43
2023-02-23T22:06:45.483Z,11.67
2023-02-23T22:09:15.695Z,10.93
2023-02-23T22:11:45.066Z,14.20
2023-02-23T22:14:16.797Z,10.53
2023-02-23T22:16:45.098Z,11.27
2023-02-23T22:19:13.248Z,9.93
2023-02-23T22:21:41.905Z,9.50
2023-02-23T22:24:10.603Z,9.83
2023-02-23T22:26:39.949Z,12.90
2023-02-23T22:29:08.661Z,9.63
2023-02-23T22:31:38.307Z,11.07
2023-02-23T22:34:07.298Z,11.97
2023-02-23T22:36:35.427Z,9.93
2023-02-23T22:39:03.936Z,10.53
2023-02-23T22:41:32.012Z,11.53
2023-02-23T22:44:00.103Z,11.17
2023-02-23T22:46:28.159Z,9.57
2023-02-23T22:48:57.616Z,11.40
2023-02-23T22:51:25.641Z,7.70
2023-02-23T22:53:53.674Z,10.30
2023-02-23T22:56:21.745Z,9.40
2023-02-23T22:58:52.055Z,10.27
2023-02-23T23:01:20.539Z,10.60
2023-02-23T23:03:49.008Z,18.83
2023-02-23T23:06:22.118Z,10.90
2023-02-23T23:08:51.856Z,15.77
2023-02-23T23:11:21.431Z,11.00
2023-02-23T23:13:50.363Z,10.70
2023-02-23T23:16:30.663Z,10.60
2023-02-23T23:19:02.373Z,8.10
2023-02-23T23:21:32.857Z,9.00
2023-02-23T23:24:01.996Z,8.93
2023-02-23T23:26:31.862Z,9.87
2023-02-23T23:29:04.633Z,10.13
2023-02-23T23:31:34.750Z,13.57
2023-02-23T23:34:04.260Z,6.23
2023-02-23T23:36:34.980Z,9.73
2023-02-23T23:39:04.066Z,12.47
2023-02-23T23:41:35.441Z,14.23
2023-02-23T23:44:05.362Z,7.63
2023-02-23T23:46:35.567Z,8.37
2023-02-23T23:49:06.100Z,11.60
2023-02-23T23:51:38.906Z,10.20
2023-02-23T23:54:07.997Z,8.93
2023-02-23T23:56:37.398Z,11.63
2023-02-23T23:59:07.200Z,12.70
